createdAt,value
2019-02-17T00:00:01.349Z,1.49
2019-02-17T00:02:29.782Z,1.43
2019-02-17T00:04:58.200Z,1.52
2019-02-17T00:07:26.646Z,1.61
2019-02-17T00:09:55.068Z,1.69
2019-02-17T00:12:23.515Z,1.66
2019-02-17T00:14:51.947Z,1.57
2019-02-17T00:17:20.373Z,1.51
2019-02-17T00:19:48.823Z,1.51
2019-02-17T00:22:17.246Z,1.62
2019-02-17T00:24:45.691Z,1.62
2019-02-17T00:27:14.120Z,1.67
2019-02-17T00:29:42.580Z,1.69
2019-02-17T00:32:11.060Z,1.71
2019-02-17T00:34:39.512Z,1.67
2019-02-17T00:37:07.932Z,1.71
2019-02-17T00:39:36.379Z,1.76
2019-02-17T00:42:04.879Z,1.51
2019-02-17T00:44:33.345Z,1.29
2019-02-17T00:47:01.833Z,1.16
2019-02-17T00:49:30.296Z,1.11
2019-02-17T00:51:58.720Z,1.09
2019-02-17T00:54:27.183Z,1.10
2019-02-17T00:56:55.607Z,1.11
2019-02-17T00:59:24.068Z,1.12
2019-02-17T01:01:52.491Z,1.14
2019-02-17T01:04:20.952Z,1.12
2019-02-17T01:06:49.369Z,1.08
2019-02-17T01:09:17.825Z,1.05
2019-02-17T01:11:46.251Z,1.04
2019-02-17T01:14:14.707Z,1.02
2019-02-17T01:16:43.140Z,0.93
2019-02-17T01:19:11.593Z,0.85
2019-02-17T01:21:40.017Z,0.75
2019-02-17T01:24:08.642Z,0.61
2019-02-17T01:26:37.071Z,0.58
2019-02-17T01:29:05.520Z,0.65
2019-02-17T01:31:33.939Z,0.78
2019-02-17T01:34:05.581Z,0.81
2019-02-17T01:36:34.005Z,0.88
2019-02-17T01:39:02.425Z,0.93
2019-02-17T01:41:30.875Z,0.96
2019-02-17T01:43:59.301Z,0.93
2019-02-17T01:46:27.755Z,0.83
2019-02-17T01:48:56.183Z,0.86
2019-02-17T01:51:24.632Z,0.94
2019-02-17T01:53:53.063Z,1.04
2019-02-17T01:56:21.521Z,1.03
2019-02-17T01:58:49.940Z,1.18
2019-02-17T02:01:18.461Z,1.24
2019-02-17T02:03:46.893Z,1.26
2019-02-17T02:06:16.291Z,1.16
2019-02-17T02:08:44.716Z,1.06
2019-02-17T02:11:13.243Z,0.98
2019-02-17T02:13:41.673Z,0.92
2019-02-17T02:16:10.190Z,0.94
2019-02-17T02:18:38.671Z,1.02
2019-02-17T02:21:07.145Z,1.12
2019-02-17T02:23:35.577Z,1.28
2019-02-17T02:26:04.018Z,1.39
2019-02-17T02:28:32.435Z,1.41
2019-02-17T02:31:00.884Z,1.40
2019-02-17T02:33:29.309Z,1.35
2019-02-17T02:35:57.765Z,1.39
2019-02-17T02:38:26.180Z,1.43
2019-02-17T02:40:54.630Z,1.49
2019-02-17T02:43:23.059Z,1.47
2019-02-17T02:45:51.575Z,1.49
2019-02-17T02:48:19.997Z,1.40
2019-02-17T02:50:48.516Z,1.37
2019-02-17T02:53:16.939Z,1.29
2019-02-17T02:55:45.390Z,1.27
2019-02-17T02:58:13.812Z,1.31
2019-02-17T03:00:42.241Z,1.24
2019-02-17T03:03:10.697Z,1.24
2019-02-17T03:05:40.768Z,1.19
2019-02-17T03:08:09.229Z,1.20
2019-02-17T03:10:37.638Z,1.24
2019-02-17T03:13:06.092Z,1.24
2019-02-17T03:15:34.514Z,1.26
2019-02-17T03:18:02.970Z,1.33
2019-02-17T03:20:31.382Z,1.42
2019-02-17T03:22:59.852Z,1.53
2019-02-17T03:25:28.273Z,1.50
2019-02-17T03:27:56.724Z,1.50
2019-02-17T03:30:25.134Z,1.48
2019-02-17T03:32:53.585Z,1.51
2019-02-17T03:35:22.002Z,1.49
2019-02-17T03:37:50.458Z,1.53
2019-02-17T03:40:18.871Z,1.51
2019-02-17T03:42:47.321Z,1.45
2019-02-17T03:45:15.743Z,1.37
2019-02-17T03:47:44.191Z,1.32
2019-02-17T03:50:12.613Z,1.24
2019-02-17T03:52:41.124Z,1.17
2019-02-17T03:55:09.693Z,1.13
2019-02-17T03:57:38.131Z,1.15
2019-02-17T04:00:16.549Z,1.19
2019-02-17T04:02:38.379Z,1.26
2019-02-17T04:05:06.978Z,1.26
2019-02-17T04:07:35.429Z,1.22
2019-02-17T04:10:03.924Z,1.15
2019-02-17T04:12:32.384Z,1.12
2019-02-17T04:15:00.872Z,1.11
2019-02-17T04:17:29.317Z,1.07
2019-02-17T04:19:57.744Z,1.03
2019-02-17T04:22:26.205Z,0.97
2019-02-17T04:24:54.614Z,0.88
2019-02-17T04:27:23.136Z,0.86
2019-02-17T04:29:51.562Z,0.81
2019-02-17T04:32:20.019Z,0.84
2019-02-17T04:34:48.443Z,0.95
2019-02-17T04:37:17.041Z,0.98
2019-02-17T04:39:45.456Z,0.98
2019-02-17T04:42:13.886Z,1.03
2019-02-17T04:44:42.342Z,1.06
2019-02-17T04:47:10.758Z,0.99
2019-02-17T04:49:39.214Z,0.78
2019-02-17T04:52:07.642Z,0.64
2019-02-17T04:54:36.092Z,0.59
2019-02-17T04:57:04.514Z,0.52
2019-02-17T04:59:32.958Z,0.54
2019-02-17T05:02:01.385Z,0.46
2019-02-17T05:04:29.840Z,0.45
2019-02-17T05:06:58.263Z,0.53
2019-02-17T05:09:26.717Z,0.58
2019-02-17T05:11:55.138Z,0.70
2019-02-17T05:14:23.596Z,0.88
2019-02-17T05:16:52.021Z,0.96
2019-02-17T05:19:20.467Z,1.01
2019-02-17T05:21:48.893Z,1.03
2019-02-17T05:24:17.335Z,1.05
2019-02-17T05:26:45.758Z,1.05
2019-02-17T05:29:14.202Z,1.08
2019-02-17T05:31:42.632Z,1.03
2019-02-17T05:34:11.074Z,1.01
2019-02-17T05:36:39.491Z,1.09
2019-02-17T05:39:07.936Z,1.11
2019-02-17T05:41:36.358Z,1.15
2019-02-17T05:44:04.875Z,1.20
2019-02-17T05:46:33.287Z,1.24
2019-02-17T05:49:01.733Z,1.28
2019-02-17T05:51:30.153Z,1.34
2019-02-17T05:53:58.604Z,1.45
2019-02-17T05:56:27.033Z,1.45
2019-02-17T05:58:55.477Z,1.43
2019-02-17T06:01:23.893Z,1.27
2019-02-17T06:03:52.348Z,1.06
2019-02-17T06:06:20.842Z,0.92
2019-02-17T06:08:49.281Z,0.85
2019-02-17T06:11:17.706Z,0.83
2019-02-17T06:13:46.160Z,0.80
2019-02-17T06:16:14.585Z,0.74
2019-02-17T06:18:43.043Z,0.68
2019-02-17T06:21:11.471Z,0.69
2019-02-17T06:23:39.922Z,0.78
2019-02-17T06:26:08.354Z,0.83
2019-02-17T06:28:36.779Z,0.92
2019-02-17T06:31:13.954Z,0.92
2019-02-17T06:33:35.366Z,0.91
2019-02-17T06:36:03.815Z,0.90
2019-02-17T06:38:32.246Z,0.90
2019-02-17T06:41:00.696Z,0.89
2019-02-17T06:43:29.128Z,0.91
2019-02-17T06:45:57.579Z,0.90
2019-02-17T06:48:26.001Z,0.91
2019-02-17T06:50:54.454Z,0.92
2019-02-17T06:53:22.876Z,0.93
2019-02-17T06:55:52.960Z,0.91
2019-02-17T06:58:21.455Z,0.90
2019-02-17T07:00:49.909Z,0.93
2019-02-17T07:03:18.342Z,1.01
2019-02-17T07:05:51.127Z,1.12
2019-02-17T07:08:19.545Z,1.19
2019-02-17T07:10:47.988Z,1.25
2019-02-17T07:13:16.418Z,1.19
2019-02-17T07:15:44.870Z,1.10
2019-02-17T07:18:13.285Z,1.02
2019-02-17T07:20:41.744Z,0.97
2019-02-17T07:23:10.167Z,0.97
2019-02-17T07:25:38.614Z,0.98
2019-02-17T07:28:07.046Z,0.99
2019-02-17T07:30:35.498Z,1.02
2019-02-17T07:33:03.924Z,1.03
2019-02-17T07:35:32.373Z,1.00
2019-02-17T07:38:00.799Z,0.98
2019-02-17T07:40:29.251Z,1.01
2019-02-17T07:42:57.683Z,1.04
2019-02-17T07:45:26.131Z,1.12
2019-02-17T07:47:54.564Z,1.20
2019-02-17T07:50:23.007Z,1.33
2019-02-17T07:52:51.433Z,1.44
2019-02-17T07:55:19.891Z,1.51
2019-02-17T07:57:48.314Z,1.56
2019-02-17T08:00:16.772Z,1.64
2019-02-17T08:02:45.201Z,1.76
2019-02-17T08:05:13.655Z,1.92
2019-02-17T08:07:42.077Z,2.09
2019-02-17T08:10:10.794Z,2.28
2019-02-17T08:12:39.220Z,2.44
2019-02-17T08:15:10.113Z,2.49
2019-02-17T08:17:38.533Z,2.58
2019-02-17T08:20:09.602Z,2.58
2019-02-17T08:22:38.019Z,2.59
2019-02-17T08:25:08.120Z,2.69
2019-02-17T08:27:36.540Z,2.85
2019-02-17T08:30:07.971Z,3.00
2019-02-17T08:32:36.418Z,3.12
2019-02-17T08:35:05.089Z,3.24
2019-02-17T08:37:33.541Z,3.33
2019-02-17T08:40:01.970Z,3.39
2019-02-17T08:42:30.423Z,3.67
2019-02-17T08:44:58.847Z,3.67
2019-02-17T08:47:27.299Z,3.96
2019-02-17T08:49:55.724Z,3.96
2019-02-17T08:52:24.177Z,4.16
2019-02-17T08:54:52.602Z,4.61
2019-02-17T08:57:21.062Z,4.82
2019-02-17T08:59:49.493Z,4.97
2019-02-17T09:02:17.951Z,4.97
2019-02-17T09:04:46.372Z,5.48
2019-02-17T09:07:14.822Z,5.56
2019-02-17T09:09:43.241Z,5.56
2019-02-17T09:12:11.694Z,5.51
2019-02-17T09:14:40.124Z,5.70
2019-02-17T09:17:08.594Z,5.85
2019-02-17T09:19:37.015Z,6.08
2019-02-17T09:22:05.471Z,6.19
2019-02-17T09:24:33.965Z,6.28
2019-02-17T09:27:02.411Z,6.31
2019-02-17T09:29:30.844Z,6.34
2019-02-17T09:31:59.587Z,6.40
2019-02-17T09:34:28.003Z,6.49
2019-02-17T09:36:56.454Z,6.60
2019-02-17T09:39:24.889Z,6.68
2019-02-17T09:41:53.336Z,6.75
2019-02-17T09:44:21.762Z,6.86
2019-02-17T09:46:50.211Z,7.07
2019-02-17T09:49:18.643Z,7.23
2019-02-17T09:51:47.163Z,7.35
2019-02-17T09:54:15.601Z,7.42
2019-02-17T09:56:44.072Z,7.47
2019-02-17T09:59:12.504Z,7.67
2019-02-17T10:01:42.695Z,7.86
2019-02-17T10:04:11.242Z,7.97
2019-02-17T10:06:39.685Z,8.07
2019-02-17T10:09:08.108Z,8.12
2019-02-17T10:11:36.558Z,8.28
2019-02-17T10:14:05.045Z,8.50
2019-02-17T10:16:33.473Z,8.72
2019-02-17T10:19:01.972Z,8.86
2019-02-17T10:21:30.419Z,9.02
2019-02-17T10:23:58.870Z,9.14
2019-02-17T10:26:27.362Z,9.27
2019-02-17T10:28:55.820Z,9.34
2019-02-17T10:31:24.316Z,9.41
2019-02-17T10:33:52.772Z,9.57
2019-02-17T10:36:21.195Z,9.74
2019-02-17T10:38:49.661Z,9.85
2019-02-17T10:41:18.098Z,10.00
2019-02-17T10:43:46.622Z,10.18
2019-02-17T10:46:15.054Z,10.30
2019-02-17T10:48:43.506Z,10.37
2019-02-17T10:51:11.940Z,10.50
2019-02-17T10:53:40.396Z,10.53
2019-02-17T10:56:08.825Z,10.60
2019-02-17T10:58:37.292Z,10.75
2019-02-17T11:01:05.723Z,10.91
2019-02-17T11:03:34.178Z,10.88
2019-02-17T11:06:02.597Z,10.81
2019-02-17T11:08:31.050Z,10.91
2019-02-17T11:10:59.486Z,10.98
2019-02-17T11:13:27.944Z,11.16
2019-02-17T11:15:56.368Z,11.26
2019-02-17T11:18:24.899Z,11.28
2019-02-17T11:20:53.399Z,11.32
2019-02-17T11:23:21.865Z,11.29
2019-02-17T11:25:50.291Z,11.36
2019-02-17T11:28:18.753Z,11.38
2019-02-17T11:30:47.238Z,11.39
2019-02-17T11:33:15.705Z,11.41
2019-02-17T11:35:44.136Z,11.45
2019-02-17T11:38:12.603Z,11.49
2019-02-17T11:40:41.098Z,11.35
2019-02-17T11:43:09.547Z,11.22
2019-02-17T11:45:37.975Z,11.20
2019-02-17T11:48:06.497Z,11.17
2019-02-17T11:50:34.921Z,11.26
2019-02-17T11:53:03.372Z,11.34
2019-02-17T11:55:31.794Z,11.25
2019-02-17T11:58:00.270Z,11.13
2019-02-17T12:00:28.678Z,11.04
2019-02-17T12:03:07.288Z,11.11
2019-02-17T12:05:27.343Z,11.24
2019-02-17T12:07:55.763Z,11.33
2019-02-17T12:10:24.222Z,11.44
2019-02-17T12:12:52.642Z,11.40
2019-02-17T12:15:21.163Z,11.49
2019-02-17T12:17:49.588Z,11.55
2019-02-17T12:20:27.341Z,11.47
2019-02-17T12:23:06.233Z,11.39
2019-02-17T12:25:36.324Z,11.40
2019-02-17T12:28:06.395Z,11.48
2019-02-17T12:30:34.844Z,11.56
2019-02-17T12:33:03.271Z,11.59
2019-02-17T12:35:31.735Z,11.66
2019-02-17T12:38:00.165Z,11.70
2019-02-17T12:40:28.613Z,11.75
2019-02-17T12:42:57.035Z,11.63
2019-02-17T12:45:25.491Z,11.55
2019-02-17T12:47:57.865Z,11.55
2019-02-17T12:50:24.098Z,11.60
2019-02-17T12:52:52.524Z,11.63
2019-02-17T12:55:21.050Z,11.66
2019-02-17T12:57:49.541Z,11.77
2019-02-17T13:00:18.370Z,11.83
2019-02-17T13:02:47.102Z,11.85
2019-02-17T13:05:15.593Z,11.85
2019-02-17T13:07:44.019Z,11.94
2019-02-17T13:10:12.640Z,12.01
2019-02-17T13:12:41.093Z,12.04
2019-02-17T13:15:13.631Z,12.15
2019-02-17T13:17:42.058Z,12.18
2019-02-17T13:20:12.247Z,12.25
2019-02-17T13:22:40.739Z,12.31
2019-02-17T13:25:12.364Z,12.25
2019-02-17T13:27:40.788Z,12.27
2019-02-17T13:30:24.434Z,12.26
2019-02-17T13:32:52.938Z,12.28
2019-02-17T13:35:21.402Z,12.30
2019-02-17T13:37:49.820Z,12.31
2019-02-17T13:40:18.272Z,12.35
2019-02-17T13:42:47.008Z,12.31
2019-02-17T13:45:16.763Z,12.27
2019-02-17T13:47:45.189Z,12.30
2019-02-17T13:50:15.185Z,12.31
2019-02-17T13:52:43.598Z,12.23
2019-02-17T13:55:12.417Z,12.25
2019-02-17T13:57:40.908Z,12.28
2019-02-17T14:00:17.138Z,12.30
2019-02-17T14:02:45.558Z,12.29
2019-02-17T14:05:14.125Z,12.29
2019-02-17T14:07:42.519Z,12.30
2019-02-17T14:10:12.512Z,12.23
2019-02-17T14:12:40.944Z,12.27
2019-02-17T14:15:17.564Z,12.31
2019-02-17T14:17:45.982Z,12.27
2019-02-17T14:20:14.602Z,12.20
2019-02-17T14:22:43.082Z,12.18
2019-02-17T14:25:11.750Z,12.17
2019-02-17T14:27:40.285Z,12.14
2019-02-17T14:30:14.698Z,12.13
2019-02-17T14:32:43.217Z,12.10
2019-02-17T14:35:11.711Z,12.03
2019-02-17T14:37:40.164Z,11.95
2019-02-17T14:40:11.673Z,11.92
2019-02-17T14:42:40.134Z,11.88
2019-02-17T14:45:15.749Z,11.81
2019-02-17T14:47:44.281Z,11.75
2019-02-17T14:50:13.442Z,11.63
2019-02-17T14:52:41.891Z,11.53
2019-02-17T14:55:11.657Z,11.46
2019-02-17T14:57:40.113Z,11.40
2019-02-17T15:00:15.927Z,11.35
2019-02-17T15:02:44.461Z,11.29
2019-02-17T15:05:12.880Z,11.30
2019-02-17T15:07:41.325Z,11.29
2019-02-17T15:10:14.234Z,11.25
2019-02-17T15:12:42.763Z,11.19
2019-02-17T15:15:12.731Z,11.16
2019-02-17T15:17:41.186Z,11.10
2019-02-17T15:20:12.451Z,11.02
2019-02-17T15:22:40.907Z,10.94
2019-02-17T15:25:11.386Z,10.93
2019-02-17T15:27:39.903Z,10.82
2019-02-17T15:30:17.604Z,10.80
2019-02-17T15:32:45.570Z,10.77
2019-02-17T15:35:13.998Z,10.67
2019-02-17T15:37:42.458Z,10.62
2019-02-17T15:40:12.612Z,10.54
2019-02-17T15:42:43.101Z,10.31
2019-02-17T15:45:12.464Z,10.24
2019-02-17T15:47:40.919Z,10.25
2019-02-17T15:50:11.280Z,10.07
2019-02-17T15:52:39.760Z,9.99
2019-02-17T15:55:13.077Z,9.95
2019-02-17T15:57:41.524Z,9.79
2019-02-17T16:00:16.003Z,9.65
2019-02-17T16:02:44.451Z,9.54
2019-02-17T16:05:13.033Z,9.37
2019-02-17T16:07:41.489Z,9.24
2019-02-17T16:10:13.823Z,9.18
2019-02-17T16:12:42.275Z,9.11
2019-02-17T16:15:16.388Z,9.07
2019-02-17T16:17:44.842Z,9.03
2019-02-17T16:20:14.302Z,8.93
2019-02-17T16:22:42.823Z,8.81
2019-02-17T16:25:12.193Z,8.66
2019-02-17T16:27:41.303Z,8.54
2019-02-17T16:30:18.818Z,8.47
2019-02-17T16:32:47.329Z,8.40
2019-02-17T16:35:15.754Z,8.34
2019-02-17T16:37:44.277Z,8.37
2019-02-17T16:40:17.150Z,8.32
2019-02-17T16:42:45.605Z,8.39
2019-02-17T16:45:15.568Z,8.48
2019-02-17T16:47:45.727Z,8.40
2019-02-17T16:50:19.967Z,8.26
2019-02-17T16:52:48.421Z,7.87
2019-02-17T16:55:16.920Z,7.54
2019-02-17T16:57:45.447Z,7.54
2019-02-17T17:00:18.153Z,7.45
2019-02-17T17:02:46.675Z,7.37
2019-02-17T17:05:15.279Z,7.27
2019-02-17T17:07:43.806Z,7.12
2019-02-17T17:10:12.229Z,7.05
2019-02-17T17:12:41.019Z,7.13
2019-02-17T17:15:10.312Z,7.23
2019-02-17T17:17:38.805Z,7.26
2019-02-17T17:20:15.447Z,7.30
2019-02-17T17:22:43.938Z,7.17
2019-02-17T17:25:12.837Z,7.08
2019-02-17T17:27:41.499Z,6.99
2019-02-17T17:30:14.916Z,6.94
2019-02-17T17:32:43.348Z,6.87
2019-02-17T17:35:11.879Z,6.81
2019-02-17T17:37:40.369Z,6.81
2019-02-17T17:40:15.609Z,6.83
2019-02-17T17:42:44.102Z,6.58
2019-02-17T17:45:22.607Z,6.28
2019-02-17T17:47:51.039Z,6.17
2019-02-17T17:50:19.499Z,6.15
2019-02-17T17:52:48.077Z,6.33
2019-02-17T17:55:16.553Z,6.56
2019-02-17T17:57:45.044Z,6.51
2019-02-17T18:00:19.195Z,6.37
2019-02-17T18:02:47.623Z,6.22
2019-02-17T18:05:16.146Z,5.78
2019-02-17T18:07:44.580Z,5.35
2019-02-17T18:10:14.573Z,4.97
2019-02-17T18:12:43.000Z,4.75
2019-02-17T18:15:19.190Z,4.58
2019-02-17T18:17:54.193Z,4.48
2019-02-17T18:20:17.927Z,4.46
2019-02-17T18:22:46.474Z,4.46
2019-02-17T18:25:15.196Z,4.40
2019-02-17T18:27:43.619Z,4.40
2019-02-17T18:30:18.924Z,4.48
2019-02-17T18:32:47.345Z,4.43
2019-02-17T18:35:19.605Z,4.45
2019-02-17T18:37:45.933Z,4.34
2019-02-17T18:40:15.717Z,4.29
2019-02-17T18:42:44.204Z,4.21
2019-02-17T18:45:13.962Z,4.21
2019-02-17T18:47:42.491Z,4.14
2019-02-17T18:50:15.911Z,4.04
2019-02-17T18:52:44.354Z,3.99
2019-02-17T18:55:14.491Z,3.99
2019-02-17T18:57:50.221Z,3.99
2019-02-17T19:00:15.816Z,3.94
2019-02-17T19:02:44.261Z,3.83
2019-02-17T19:05:12.747Z,3.83
2019-02-17T19:07:41.272Z,3.76
2019-02-17T19:10:13.948Z,3.66
2019-02-17T19:12:42.474Z,3.41
2019-02-17T19:15:13.802Z,3.41
2019-02-17T19:17:42.327Z,3.54
2019-02-17T19:20:13.667Z,3.65
2019-02-17T19:22:42.121Z,3.75
2019-02-17T19:25:10.717Z,3.75
2019-02-17T19:27:39.239Z,3.86
2019-02-17T19:30:10.477Z,4.00
2019-02-17T19:32:38.935Z,4.16
2019-02-17T19:35:10.206Z,4.30
2019-02-17T19:37:38.656Z,4.30
2019-02-17T19:40:09.937Z,4.63
2019-02-17T19:42:38.389Z,4.70
2019-02-17T19:45:09.916Z,4.70
2019-02-17T19:47:38.376Z,4.65
2019-02-17T19:50:09.618Z,4.42
2019-02-17T19:52:38.071Z,4.42
2019-02-17T19:55:07.947Z,3.98
2019-02-17T19:57:36.400Z,3.98
2019-02-17T20:00:08.151Z,3.76
2019-02-17T20:02:38.240Z,3.73
2019-02-17T20:05:08.973Z,3.73
2019-02-17T20:07:37.416Z,3.79
2019-02-17T20:10:08.553Z,3.65
2019-02-17T20:12:37.025Z,3.57
2019-02-17T20:15:07.787Z,3.57
2019-02-17T20:17:36.203Z,3.60
2019-02-17T20:20:07.693Z,3.45
2019-02-17T20:22:36.121Z,3.31
2019-02-17T20:25:05.720Z,3.22
2019-02-17T20:27:34.150Z,3.18
2019-02-17T20:30:02.607Z,3.09
2019-02-17T20:32:31.116Z,3.09
2019-02-17T20:34:59.558Z,3.06
2019-02-17T20:37:27.987Z,3.02
2019-02-17T20:39:56.435Z,2.99
2019-02-17T20:42:24.857Z,2.99
2019-02-17T20:44:53.307Z,2.97
2019-02-17T20:47:21.739Z,2.93
2019-02-17T20:49:50.186Z,2.92
2019-02-17T20:52:18.619Z,2.87
2019-02-17T20:54:47.073Z,2.87
2019-02-17T20:57:15.493Z,2.84
2019-02-17T20:59:43.951Z,2.84
2019-02-17T21:02:12.376Z,2.76
2019-02-17T21:04:40.907Z,2.70
2019-02-17T21:07:09.480Z,2.52
2019-02-17T21:09:37.940Z,2.44
2019-02-17T21:12:06.377Z,2.37
2019-02-17T21:14:34.910Z,2.30
2019-02-17T21:17:03.331Z,2.26
2019-02-17T21:19:31.787Z,2.24
2019-02-17T21:22:00.214Z,2.22
2019-02-17T21:24:28.668Z,2.23
2019-02-17T21:26:57.090Z,2.20
2019-02-17T21:29:25.534Z,2.30
2019-02-17T21:31:53.961Z,2.33
2019-02-17T21:34:22.417Z,2.23
2019-02-17T21:36:50.912Z,2.10
2019-02-17T21:39:19.367Z,2.07
2019-02-17T21:41:47.803Z,2.00
2019-02-17T21:44:16.740Z,2.03
2019-02-17T21:46:45.260Z,2.03
2019-02-17T21:49:13.674Z,1.82
2019-02-17T21:51:42.199Z,1.84
2019-02-17T21:54:10.627Z,1.83
2019-02-17T21:56:39.073Z,1.91
2019-02-17T21:59:07.502Z,1.83
2019-02-17T22:01:35.950Z,1.76
2019-02-17T22:04:04.458Z,1.74
2019-02-17T22:06:33.798Z,1.66
2019-02-17T22:09:02.324Z,1.66
2019-02-17T22:11:30.770Z,1.51
2019-02-17T22:13:59.197Z,1.46
2019-02-17T22:16:27.651Z,1.28
2019-02-17T22:18:56.142Z,1.26
2019-02-17T22:21:24.613Z,1.30
2019-02-17T22:23:53.028Z,1.34
2019-02-17T22:26:21.483Z,1.49
2019-02-17T22:28:49.912Z,1.65
2019-02-17T22:31:18.367Z,1.74
2019-02-17T22:33:46.795Z,1.81
2019-02-17T22:36:15.250Z,1.90
2019-02-17T22:38:43.686Z,1.85
2019-02-17T22:41:12.133Z,1.81
2019-02-17T22:43:40.551Z,1.69
2019-02-17T22:46:09.012Z,1.62
2019-02-17T22:48:37.436Z,1.53
2019-02-17T22:51:05.887Z,1.49
2019-02-17T22:53:43.361Z,1.59
2019-02-17T22:56:04.560Z,1.64
2019-02-17T22:58:32.984Z,1.45
2019-02-17T23:01:02.479Z,1.28
2019-02-17T23:03:31.355Z,1.05
2019-02-17T23:05:59.874Z,1.03
2019-02-17T23:08:28.301Z,1.16
2019-02-17T23:10:56.749Z,1.14
2019-02-17T23:13:25.238Z,1.02
2019-02-17T23:15:53.761Z,1.09
2019-02-17T23:18:22.183Z,1.09
2019-02-17T23:20:50.611Z,1.04
2019-02-17T23:23:19.060Z,0.93
2019-02-17T23:25:47.486Z,0.88
2019-02-17T23:28:15.937Z,0.75
2019-02-17T23:30:44.354Z,0.75
2019-02-17T23:33:12.803Z,0.77
2019-02-17T23:35:41.234Z,0.80
2019-02-17T23:38:09.681Z,0.85
2019-02-17T23:40:38.100Z,0.83
2019-02-17T23:43:06.629Z,0.71
2019-02-17T23:45:35.055Z,0.59
2019-02-17T23:48:03.509Z,0.66
2019-02-17T23:50:32.330Z,0.54
2019-02-17T23:53:00.753Z,0.66
2019-02-17T23:55:29.249Z,0.80
2019-02-17T23:57:57.702Z,0.82
